Flight Track Log - Related Links

Times and Time Zones

All times are in EDT time to prevent confusion due to time zone crossing. See the DAL268 flight status page for this flight to view local times or setup timezone preferences in your user account.

Time Position Orientation Groundspeed Altitude Reporting Facility
EDT Latitude Longitude Course Direction KTS MPH feet Rate Location/Type
Fri 07:14:48 PM 33.6494 -84.4806 North 451 519 2,400  Level Atlanta Center
Fri 07:15:48 PM 33.6825 -84.5556 298° West 363 418 3,900 2,050 Climbing Atlanta Center
Fri 07:16:48 PM 33.7492 -84.5883 338° Northwest 259 298 6,500 2,500 Climbing Atlanta Center
Fri 07:17:00 PM 34.0937 -84.3395 339° North  Level FlightAware Approximate
Fri 07:17:48 PM 33.8306 -84.5714 10° North 308 354 8,900  Level Atlanta Center
Fri 07:18:00 PM 34.2508 -84.4022 340° North  Level FlightAware Approximate
Fri 07:18:48 PM 33.9058 -84.5419 18° North 314 361 10,500  Level Atlanta Center
Fri 07:19:00 PM 34.4149 -84.4114 North  Level FlightAware Approximate
Fri 07:19:48 PM 34.0061 -84.5125 14° North 343 395 11,700  Level Atlanta Center
Fri 07:20:00 PM 34.5812 -84.4048 North  Level FlightAware Approximate
Fri 07:20:48 PM 34.1128 -84.4803 14° North 379 436 13,200  Level Atlanta Center
Fri 07:21:48 PM 34.2381 -84.4408 15° North 408 470 15,100 1,900 Climbing Atlanta Center
Fri 07:22:48 PM 34.3614 -84.4161 North 427 491 17,000 1,900 Climbing Atlanta Center
Fri 07:23:48 PM 34.4825 -84.4167 360° North 434 499 18,900 1,600 Climbing Atlanta Center
Fri 07:24:48 PM 34.6139 -84.4122 North 450 518 20,200 1,350 Climbing Atlanta Center
Fri 07:25:48 PM 34.7411 -84.4103 North 463 533 21,600 1,200 Climbing Atlanta Center
Fri 07:26:48 PM 34.8769 -84.4083 North 473 544 22,600 900 Climbing Atlanta Center
Fri 07:27:48 PM 35.0083 -84.4064 North 473 544 23,400 850 Climbing Atlanta Center
Fri 07:28:48 PM 35.1439 -84.4019 North 478 550 24,300 1,100 Climbing Atlanta Center
Fri 07:29:48 PM 35.2839 -84.4000 North 488 562 25,600 1,200 Climbing Atlanta Center
Fri 07:30:48 PM 35.4236 -84.3956 North 494 568 26,700 1,100 Climbing Atlanta Center
Fri 07:31:48 PM 35.5614 -84.3936 North 494 568 27,800 1,050 Climbing Atlanta Center
Fri 07:32:48 PM 35.6989 -84.3892 North 494 568 28,800 900 Climbing Atlanta Center
Fri 07:33:48 PM 35.8389 -84.3844 North 494 568 29,600 800 Climbing Atlanta Center
Fri 07:34:48 PM 35.9744 -84.3825 North 494 568 30,400 700 Climbing Atlanta Center
Fri 07:35:48 PM 36.1119 -84.3781 North 494 568 31,000 593 Climbing Atlanta Center
Fri 07:36:19 PM 36.1644 -84.3750 North 492 566 31,300 516 Climbing Indianapolis Center
Fri 07:37:21 PM 36.3289 -84.3719 North 495 570 31,800 339 Climbing Indianapolis Center
Fri 07:38:23 PM 36.4650 -84.3675 North 492 566 32,000 98 Climbing Indianapolis Center
Fri 07:39:24 PM 36.6019 -84.3650 North 498 573 32,000  Level Indianapolis Center
Fri 07:40:26 PM 36.7403 -84.3611 North 496 571 32,000  Level Indianapolis Center
Fri 07:41:28 PM 36.8811 -84.3581 North 501 577 32,000  Level Indianapolis Center
Fri 07:42:29 PM 37.0211 -84.3539 North 502 578 32,000  Level Indianapolis Center
Fri 07:43:31 PM 37.1619 -84.3503 North 502 578 32,000  Level Indianapolis Center
Fri 07:44:33 PM 37.3267 -84.3467 North 504 580 32,000  Level Indianapolis Center
Fri 07:45:34 PM 37.4678 -84.3442 North 505 581 32,000  Level Indianapolis Center
Fri 07:46:36 PM 37.6125 -84.3381 North 516 594 32,000  Level Indianapolis Center
Fri 07:47:38 PM 37.7553 -84.3336 North 511 588 32,000  Level Indianapolis Center
Fri 07:48:39 PM 37.8964 -84.3319 North 506 582 32,000  Level Indianapolis Center
Fri 07:49:41 PM 38.0369 -84.3256 North 504 580 32,000  Level Indianapolis Center
Fri 07:50:43 PM 38.1817 -84.3222 North 515 593 32,000  Level Indianapolis Center
Fri 07:51:44 PM 38.3481 -84.3172 North 511 588 32,000  Level Indianapolis Center
Fri 07:52:46 PM 38.4906 -84.3111 North 510 587 32,000  Level Indianapolis Center
Fri 07:53:48 PM 38.6319 -84.3072 North 508 585 32,000  Level Indianapolis Center
Fri 07:54:49 PM 38.7742 -84.2908 North 514 592 32,000  Level Indianapolis Center
Fri 07:55:51 PM 38.9178 -84.2672 North 515 593 32,000  Level Indianapolis Center
Fri 07:56:52 PM 39.0617 -84.2433 North 515 593 32,000  Level Indianapolis Center
Fri 07:57:54 PM 39.2033 -84.2203 North 509 586 32,000  Level Indianapolis Center
Fri 07:58:56 PM 39.3475 -84.1944 North 514 592 32,000  Level Indianapolis Center
Fri 07:59:57 PM 39.4919 -84.1728 North 516 594 32,000  Level Indianapolis Center
Fri 08:00:59 PM 39.6375 -84.1494 North 520 598 32,000  Level Indianapolis Center
Fri 08:02:01 PM 39.7825 -84.1253 North 517 595 32,000 98 Level Indianapolis Center
Fri 08:03:02 PM 39.9283 -84.1011 North 518 596 32,200 341 Climbing Indianapolis Center
Fri 08:04:04 PM 40.0958 -84.0517 13° North 527 606 32,700 390 Climbing Indianapolis Center
Fri 08:05:05 PM 40.1958 -83.9119 47° Northeast 522 601 33,000 146 Climbing Indianapolis Center
Fri 08:06:07 PM 40.2697 -83.7467 60° Northeast 519 597 33,000  Level Indianapolis Center
Fri 08:07:08 PM 40.3447 -83.5792 60° Northeast 523 602 33,000  Level Indianapolis Center
Fri 08:08:10 PM 40.4197 -83.4122 59° Northeast 524 603 33,000  Level Indianapolis Center
Fri 08:09:12 PM 40.4919 -83.2447 60° Northeast 521 600 33,000  Level Indianapolis Center
Fri 08:10:13 PM 40.5672 -83.0767 59° Northeast 517 595 33,000  Level Indianapolis Center
Fri 08:11:15 PM 40.6386 -82.9111 60° Northeast 517 595 33,000  Level Indianapolis Center
Fri 08:12:17 PM 40.7106 -82.7481 60° Northeast 513 590 33,000  Level Indianapolis Center
Fri 08:13:18 PM 40.7806 -82.5819 61° Northeast 513 590 33,000  Level Indianapolis Center
Fri 08:14:20 PM 40.8525 -82.4158 60° Northeast 517 595 33,000  Level Indianapolis Center
Fri 08:15:08 PM 40.9156 -82.2675 61° Northeast 507 583 33,000 56 Level Cleveland Center
Fri 08:16:08 PM 40.9847 -82.1014 61° Northeast 507 583 33,100  Climbing Cleveland Center
Fri 08:17:08 PM 41.0556 -81.9378 60° Northeast 507 583 33,000 -50 Descending Cleveland Center
Fri 08:18:08 PM 41.1242 -81.7739 61° Northeast 507 583 33,000  Level Cleveland Center
Fri 08:19:08 PM 41.1944 -81.6069 61° Northeast 512 589 33,000  Level Cleveland Center
Fri 08:20:08 PM 41.2647 -81.4422 60° Northeast 512 589 33,000  Level Cleveland Center
Fri 08:21:08 PM 41.3283 -81.2828 62° Northeast 499 574 33,000  Level Cleveland Center
Fri 08:22:08 PM 41.3958 -81.1172 61° Northeast 499 574 33,000  Level Cleveland Center
Fri 08:23:08 PM 41.4633 -80.9544 61° Northeast 499 574 33,000  Level Cleveland Center
Fri 08:24:08 PM 41.5303 -80.7883 62° Northeast 494 568 33,000  Level Cleveland Center
Fri 08:25:08 PM 41.5972 -80.6247 61° Northeast 494 568 33,000  Level Cleveland Center
Fri 08:26:08 PM 41.6661 -80.4553 61° Northeast 500 575 33,000  Level Cleveland Center
Fri 08:27:08 PM 41.7325 -80.2911 62° Northeast 500 575 33,000  Level Cleveland Center
Fri 08:28:08 PM 41.7986 -80.1208 62° Northeast 500 575 33,000  Level Cleveland Center
Fri 08:29:08 PM 41.8664 -79.9503 62° Northeast 500 575 33,000  Level Cleveland Center
Fri 08:30:08 PM 41.9322 -79.7822 62° Northeast 500 575 33,000  Level Cleveland Center
Fri 08:31:08 PM 41.9997 -79.6136 62° Northeast 500 575 33,000  Level Cleveland Center
Fri 08:32:08 PM 42.0647 -79.4447 63° Northeast 500 575 33,000  Level Cleveland Center
Fri 08:33:08 PM 42.0858 -79.2653 81° East 478 550 33,000  Level Cleveland Center
Fri 08:34:08 PM 42.0711 -79.0867 96° East 473 544 33,000  Level Cleveland Center
Fri 08:35:08 PM 42.0439 -78.9194 102° East 459 528 33,000  Level Cleveland Center
Fri 08:36:08 PM 42.0164 -78.7525 102° East 464 534 33,000  Level Cleveland Center
Fri 08:37:08 PM 41.9883 -78.5831 103° East 469 540 33,000  Level Cleveland Center
Fri 08:38:08 PM 41.9606 -78.4164 103° East 463 533 33,000  Level Cleveland Center
Fri 08:39:08 PM 41.9300 -78.2497 104° East 458 527 33,000  Level Cleveland Center
Fri 08:41:30 PM 41.8658 -77.8650 103° East 459 528 33,000  Level New York Center
Fri 08:42:31 PM 41.8253 -77.7047 109° East 454 522 33,000  Level New York Center
Fri 08:43:29 PM 41.7842 -77.5500 110° East 449 517 33,000  Level New York Center
Fri 08:44:30 PM 41.7431 -77.3931 109° East 449 517 33,000  Level New York Center
Fri 08:45:31 PM 41.6994 -77.2358 110° East 444 511 33,000  Level New York Center
Fri 08:46:31 PM 41.6581 -77.0792 109° East 444 511 33,000  Level New York Center
Fri 08:47:29 PM 41.6164 -76.9197 109° East 444 511 33,000  Level New York Center
Fri 08:48:29 PM 41.5722 -76.7658 111° Southeast 444 511 33,000  Level New York Center
Fri 08:49:29 PM 41.5353 -76.6294 110° East 436 502 33,000  Level New York Center
Fri 08:50:28 PM 41.4928 -76.4764 110° East 436 502 33,000  Level New York Center
Fri 08:51:29 PM 41.4544 -76.3181 108° East 441 507 33,000 -295 Level New York Center
Fri 08:52:30 PM 41.4039 -76.1450 111° Southeast 441 507 32,400 -1,230 Descending New York Center
Fri 08:53:31 PM 41.3583 -75.9978 112° Southeast 436 502 30,500 -2,050 Descending New York Center
Fri 08:54:30 PM 41.3150 -75.8453 111° Southeast 436 502 28,300 -2,269 Descending New York Center
Fri 08:55:30 PM 41.2717 -75.6900 110° East 441 507 26,000 -2,083 Descending New York Center
Fri 08:56:31 PM 41.2197 -75.5372 114° Southeast 447 514 24,100 -1,525 Descending New York Center
Fri 08:57:28 PM 41.1711 -75.3933 114° Southeast 442 509 23,000 -814 Descending New York Center
Fri 08:58:29 PM 41.1206 -75.2439 114° Southeast 442 509 22,500 -793 Descending New York Center
Fri 08:59:29 PM 41.0717 -75.1031 115° Southeast 431 496 21,400 -744 Descending New York Center
Fri 09:00:30 PM 41.0342 -74.9906 114° Southeast 425 489 21,000 -198 Descending New York Center
Fri 09:01:30 PM 40.9897 -74.8311 110° East 420 483 21,000  Level New York Center
Fri 09:02:31 PM 40.9739 -74.6819 98° East 415 478 21,000 -305 Level New York Center
Fri 09:03:28 PM 40.9581 -74.5297 98° East 415 478 20,400 -864 Descending New York Center
Fri 09:04:29 PM 40.9417 -74.3833 98° East 409 471 19,300 -987 Descending New York Center
Fri 09:04:47 PM 40.9333 -74.3167 99° East 400 460 19,100 -231 Descending New York TRACON
Fri 09:05:47 PM 40.9000 -74.1833 108° East 358 412 19,000 -650 Descending New York TRACON
Fri 09:06:47 PM 40.8833 -74.0667 101° East 327 376 17,800 -1,250 Descending New York TRACON
Fri 09:07:47 PM 40.8500 -73.9667 114° Southeast 319 367 16,500 -1,409 Descending New York TRACON
Fri 09:08:42 PM 40.8167 -73.8667 114° Southeast 318 366 15,100 -1,500 Descending New York TRACON
Fri 09:09:47 PM 40.7833 -73.7500 111° Southeast 315 362 13,500 -1,008 Descending New York TRACON
Fri 09:10:41 PM 40.7333 -73.7167 153° Southeast 272 313 13,100 -632 Descending New York TRACON
Fri 09:11:41 PM 40.6500 -73.6833 163° South 302 348 12,300 -1,150 Descending New York TRACON
Fri 09:12:41 PM 40.5833 -73.6500 159° South 265 305 10,800 -1,600 Descending New York TRACON
Fri 09:13:41 PM 40.5167 -73.6333 169° South 260 299 9,100 -1,684 Descending New York TRACON
Fri 09:14:35 PM 40.4667 -73.6833 217° Southwest 252 290 7,600 -1,526 Descending New York TRACON
Fri 09:15:35 PM 40.4000 -73.7167 201° Southwest 240 276 6,200 -1,400 Descending New York TRACON
Fri 09:16:35 PM 40.3500 -73.7500 207° Southwest 209 241 4,800 -1,300 Descending New York TRACON
Fri 09:17:35 PM 40.3167 -73.8167 237° Southwest 214 246 3,600 -939 Descending New York TRACON
Fri 09:18:30 PM 40.3353 -73.8803 291° West 199 229 3,000 -400 Descending New York Center
Fri 09:19:35 PM 40.4167 -73.9000 350° North 275 316 2,800 -412 Descending New York TRACON
Fri 09:20:41 PM 40.5000 -73.9000 360° North 277 319 2,100 -400 Descending New York TRACON
Fri 09:21:35 PM 40.5333 -73.8500 49° Northeast 201 231 2,000 -526 Descending New York TRACON
Fri 09:22:35 PM 40.5833 -73.8167 27° Northeast 169 194 1,100 -700 Descending New York TRACON
Fri 09:23:35 PM 40.6167 -73.7833 37° Northeast 138 159 600 316 Descending New York TRACON
Fri 09:24:29 PM 40.6500 -73.7833 360° North 169 194 1,700 1,000 Climbing New York TRACON
Fri 09:25:35 PM 40.6667 -73.8500 288° West 209 241 2,600 619 Climbing New York TRACON
Fri 09:26:35 PM 40.6167 -73.8833 207° Southwest 204 235 3,000 200 Climbing New York TRACON
Fri 09:27:35 PM 40.5833 -73.9333 229° Southwest 179 206 3,000  Level New York TRACON
Fri 09:28:35 PM 40.5500 -73.9667 217° Southwest 173 199 3,000  Level New York TRACON

Login

Don't have an account? Register now (free) for customized features, flight alerts, and more!